createdAt,value
2022-09-07T00:00:20.332Z,14.53
2022-09-07T00:03:24.544Z,14.51
2022-09-07T00:06:29.335Z,14.52
2022-09-07T00:09:34.452Z,14.52
2022-09-07T00:12:38.078Z,14.56
2022-09-07T00:15:42.044Z,14.53
2022-09-07T00:18:46.733Z,14.55
2022-09-07T00:21:50.512Z,14.57
2022-09-07T00:24:55.564Z,14.58
2022-09-07T00:27:59.231Z,14.63
2022-09-07T00:31:03.354Z,14.64
2022-09-07T00:34:07.351Z,14.63
2022-09-07T00:37:11.216Z,14.66
2022-09-07T00:40:16.262Z,14.66
2022-09-07T00:43:33.209Z,14.65
2022-09-07T00:46:37.056Z,14.64
2022-09-07T00:49:43.393Z,14.69
2022-09-07T00:52:52.364Z,14.67
2022-09-07T00:56:01.002Z,14.70
2022-09-07T00:59:05.390Z,14.72
2022-09-07T01:02:10.025Z,14.72
2022-09-07T01:05:24.703Z,14.77
2022-09-07T01:08:29.807Z,14.78
2022-09-07T01:11:36.251Z,14.87
2022-09-07T01:14:47.391Z,14.86
2022-09-07T01:18:05.213Z,14.89
2022-09-07T01:21:26.563Z,14.89
2022-09-07T01:25:05.292Z,14.90
2022-09-07T01:28:21.775Z,14.90
2022-09-07T01:31:42.980Z,14.92
2022-09-07T01:34:54.985Z,14.94
2022-09-07T01:38:10.889Z,14.97
2022-09-07T01:41:24.824Z,14.94
2022-09-07T01:44:39.017Z,14.95
2022-09-07T01:47:47.354Z,14.97
2022-09-07T01:50:57.821Z,14.98
2022-09-07T01:54:12.413Z,14.97
2022-09-07T01:57:24.991Z,14.98
2022-09-07T02:00:32.426Z,14.97
2022-09-07T02:03:43.547Z,15.00
2022-09-07T02:06:53.048Z,15.00
2022-09-07T02:10:02.799Z,15.00
2022-09-07T02:13:14.265Z,14.97
2022-09-07T02:16:25.785Z,14.99
2022-09-07T02:19:37.724Z,14.97
2022-09-07T02:22:46.773Z,15.02
2022-09-07T02:25:56.187Z,15.02
2022-09-07T02:29:00.210Z,15.05
2022-09-07T02:32:06.499Z,15.02
2022-09-07T02:35:10.924Z,15.03
2022-09-07T02:38:15.105Z,15.03
2022-09-07T02:41:34.230Z,15.05
2022-09-07T02:44:41.913Z,15.05
2022-09-07T02:48:10.683Z,15.06
2022-09-07T02:51:25.695Z,15.09
2022-09-07T02:54:51.028Z,15.09
2022-09-07T02:58:15.017Z,15.10
2022-09-07T03:01:37.404Z,15.11
2022-09-07T03:04:52.309Z,15.11
2022-09-07T03:08:02.369Z,15.12
2022-09-07T03:11:07.808Z,15.15
2022-09-07T03:14:19.161Z,15.07
2022-09-07T03:17:22.903Z,14.99
2022-09-07T03:20:27.931Z,14.97
2022-09-07T03:23:31.581Z,14.88
2022-09-07T03:26:36.967Z,14.83
2022-09-07T03:29:42.100Z,14.80
2022-09-07T03:32:46.009Z,14.80
2022-09-07T03:36:02.459Z,14.79
2022-09-07T03:39:07.623Z,14.72
2022-09-07T03:42:11.330Z,14.73
2022-09-07T03:45:15.186Z,14.66
2022-09-07T03:48:19.070Z,14.68
2022-09-07T03:51:24.186Z,14.55
2022-09-07T03:54:28.104Z,14.51
2022-09-07T03:57:32.059Z,14.50
2022-09-07T04:00:36.213Z,14.50
2022-09-07T04:03:41.068Z,14.42
2022-09-07T04:06:46.151Z,14.40
2022-09-07T04:09:52.341Z,14.38
2022-09-07T04:12:56.355Z,14.37
2022-09-07T04:16:00.329Z,14.36
2022-09-07T04:19:05.135Z,14.35
2022-09-07T04:22:10.225Z,14.40
2022-09-07T04:25:14.059Z,14.33
2022-09-07T04:28:17.890Z,14.33
2022-09-07T04:31:22.965Z,14.35
2022-09-07T04:34:26.767Z,14.34
2022-09-07T04:37:31.909Z,14.32
2022-09-07T04:40:36.160Z,14.27
2022-09-07T04:43:43.357Z,14.30
2022-09-07T04:46:47.214Z,14.28
2022-09-07T04:49:52.348Z,14.29
2022-09-07T04:52:57.586Z,14.28
2022-09-07T04:56:01.684Z,14.19
2022-09-07T04:59:05.926Z,14.19
2022-09-07T05:02:09.885Z,14.19
2022-09-07T05:05:13.651Z,14.23
2022-09-07T05:08:22.923Z,14.24
2022-09-07T05:11:29.723Z,14.22
2022-09-07T05:14:33.716Z,14.26
2022-09-07T05:17:37.371Z,14.33
2022-09-07T05:20:41.820Z,14.44
2022-09-07T05:23:50.655Z,14.47
2022-09-07T05:26:54.920Z,14.48
2022-09-07T05:33:09.143Z,14.45
2022-09-07T05:36:12.924Z,14.44
2022-09-07T05:39:18.661Z,14.37
2022-09-07T05:42:22.771Z,14.30
2022-09-07T05:45:26.732Z,14.22
2022-09-07T05:48:30.805Z,14.19
2022-09-07T05:51:34.918Z,14.16
2022-09-07T05:54:40.251Z,14.17
2022-09-07T05:57:43.951Z,14.11
2022-09-07T06:00:47.820Z,14.05
2022-09-07T06:03:51.723Z,14.05
2022-09-07T06:13:44.855Z,14.04
2022-09-07T06:16:48.616Z,14.05
2022-09-07T06:19:52.379Z,14.04
2022-09-07T06:22:56.117Z,14.06
2022-09-07T06:26:02.146Z,14.10
2022-09-07T06:29:06.015Z,14.09
2022-09-07T06:35:33.315Z,14.15
2022-09-07T06:38:39.467Z,14.17
2022-09-07T06:41:59.816Z,14.21
2022-09-07T06:45:03.599Z,14.22
2022-09-07T06:48:07.329Z,14.24
2022-09-07T06:51:15.718Z,14.32
2022-09-07T06:57:44.551Z,14.35
2022-09-07T07:00:48.491Z,14.35
2022-09-07T07:03:53.639Z,14.35
2022-09-07T07:06:57.372Z,14.42
2022-09-07T07:10:01.044Z,14.47
2022-09-07T07:13:06.133Z,14.52
2022-09-07T07:16:11.716Z,14.56
2022-09-07T07:19:15.803Z,14.66
2022-09-07T07:22:45.023Z,14.75
2022-09-07T07:25:43.189Z,14.83
2022-09-07T07:29:06.076Z,15.03
2022-09-07T07:32:09.858Z,15.22
2022-09-07T07:35:15.102Z,15.16
2022-09-07T07:42:00.316Z,15.63
2022-09-07T07:48:35.970Z,15.53
2022-09-07T07:55:42.981Z,15.67
2022-09-07T07:58:28.265Z,15.85
2022-09-07T08:01:33.395Z,16.02
2022-09-07T08:04:37.620Z,15.92
2022-09-07T08:07:41.280Z,15.96
2022-09-07T08:10:46.141Z,16.07
2022-09-07T08:13:52.172Z,16.19
2022-09-07T08:16:57.232Z,16.19
2022-09-07T08:20:00.767Z,16.49
2022-09-07T08:23:04.499Z,16.70
2022-09-07T08:26:09.557Z,16.89
2022-09-07T08:29:13.426Z,17.19
2022-09-07T08:32:18.397Z,16.98
2022-09-07T08:35:22.087Z,17.24
2022-09-07T08:38:26.308Z,17.55
2022-09-07T08:42:03.143Z,18.06
2022-09-07T08:45:12.983Z,18.36
2022-09-07T08:48:24.914Z,18.29
2022-09-07T08:51:38.365Z,18.56
2022-09-07T08:54:50.976Z,18.75
2022-09-07T08:58:05.134Z,18.74
2022-09-07T09:08:33.571Z,19.13
2022-09-07T09:11:53.901Z,19.33
2022-09-07T09:15:17.632Z,19.68
2022-09-07T09:18:37.674Z,19.71
2022-09-07T09:21:44.673Z,19.80
2022-09-07T09:24:54.062Z,19.85
2022-09-07T09:27:57.741Z,20.00
2022-09-07T09:31:01.442Z,20.09
2022-09-07T09:34:17.702Z,20.13
2022-09-07T09:37:36.777Z,20.10
2022-09-07T09:40:40.704Z,20.14
2022-09-07T09:43:47.952Z,20.24
2022-09-07T09:53:59.234Z,20.33
2022-09-07T09:57:03.606Z,20.52
2022-09-07T10:00:23.635Z,20.62
2022-09-07T10:07:07.891Z,20.74
2022-09-07T10:10:17.867Z,21.14
2022-09-07T10:13:25.253Z,20.88
2022-09-07T10:16:42.261Z,21.14
2022-09-07T10:19:46.053Z,21.23
2022-09-07T10:23:00.758Z,21.56
2022-09-07T10:26:27.163Z,21.66
2022-09-07T10:29:36.031Z,21.44
2022-09-07T10:33:02.287Z,21.64
2022-09-07T10:36:16.438Z,21.67
2022-09-07T10:39:26.704Z,21.95
2022-09-07T10:42:36.611Z,21.77
2022-09-07T10:53:42.071Z,21.84
2022-09-07T10:57:04.249Z,22.00
2022-09-07T11:00:16.447Z,21.86
2022-09-07T11:04:04.232Z,22.16
2022-09-07T11:07:32.035Z,22.20
2022-09-07T11:10:47.589Z,22.24
2022-09-07T11:14:12.443Z,22.24
2022-09-07T11:17:24.501Z,22.63
2022-09-07T11:20:35.564Z,22.89
2022-09-07T11:23:46.110Z,22.93
2022-09-07T11:26:57.557Z,22.84
2022-09-07T11:30:07.084Z,22.76
2022-09-07T11:33:20.592Z,22.71
2022-09-07T11:36:27.974Z,22.70
2022-09-07T11:39:37.415Z,22.79
2022-09-07T11:42:51.192Z,23.15
2022-09-07T11:46:02.640Z,22.77
2022-09-07T11:49:18.988Z,23.24
2022-09-07T11:52:35.331Z,23.26
2022-09-07T11:55:45.328Z,23.12
2022-09-07T11:59:19.348Z,23.17
2022-09-07T12:03:38.192Z,23.18
2022-09-07T12:07:18.446Z,23.40
2022-09-07T12:10:56.088Z,23.28
2022-09-07T12:14:18.944Z,23.12
2022-09-07T12:17:45.712Z,22.90
2022-09-07T12:20:50.496Z,22.83
2022-09-07T12:23:55.542Z,22.72
2022-09-07T12:27:01.836Z,22.73
2022-09-07T12:30:57.911Z,22.65
2022-09-07T12:34:58.996Z,22.94
2022-09-07T12:38:06.059Z,23.06
2022-09-07T12:41:26.598Z,23.04
2022-09-07T12:44:30.188Z,23.17
2022-09-07T12:47:33.891Z,23.24
2022-09-07T12:50:58.931Z,23.42
2022-09-07T12:54:13.760Z,23.46
2022-09-07T12:57:34.456Z,23.67
2022-09-07T13:01:01.007Z,23.69
2022-09-07T13:04:48.637Z,23.58
2022-09-07T13:08:43.981Z,23.49
2022-09-07T13:11:48.478Z,23.34
2022-09-07T13:14:57.218Z,23.33
2022-09-07T13:18:01.301Z,23.17
2022-09-07T13:21:38.645Z,23.19
2022-09-07T13:24:56.806Z,23.28
2022-09-07T13:28:04.495Z,23.26
2022-09-07T13:31:45.184Z,23.34
2022-09-07T13:35:06.762Z,23.19
2022-09-07T13:38:16.705Z,23.26
2022-09-07T13:41:36.226Z,23.20
2022-09-07T13:44:41.696Z,23.08
2022-09-07T13:48:01.678Z,23.06
2022-09-07T13:51:14.309Z,23.14
2022-09-07T13:54:30.166Z,23.18
2022-09-07T13:57:49.487Z,23.03
2022-09-07T14:00:55.837Z,22.97
2022-09-07T14:04:07.636Z,22.87
2022-09-07T14:07:17.095Z,22.86
2022-09-07T14:10:23.268Z,22.71
2022-09-07T14:13:26.849Z,22.61
2022-09-07T14:16:30.629Z,22.57
2022-09-07T14:19:40.847Z,22.35
2022-09-07T14:22:49.414Z,22.44
2022-09-07T14:26:17.166Z,22.44
2022-09-07T14:29:27.007Z,22.39
2022-09-07T14:32:32.167Z,22.17
2022-09-07T14:35:42.407Z,22.07
2022-09-07T14:42:15.216Z,22.26
2022-09-07T14:45:37.522Z,22.29
2022-09-07T14:48:43.125Z,22.31
2022-09-07T14:51:49.275Z,22.20
2022-09-07T14:54:54.138Z,22.19
2022-09-07T14:58:24.054Z,22.06
2022-09-07T15:01:44.126Z,22.10
2022-09-07T15:04:49.039Z,22.10
2022-09-07T15:07:57.866Z,22.16
2022-09-07T15:14:28.106Z,22.18
2022-09-07T15:17:49.283Z,22.29
2022-09-07T15:20:53.158Z,22.22
2022-09-07T15:24:00.792Z,22.06
2022-09-07T15:27:20.823Z,22.17
2022-09-07T15:30:25.293Z,22.22
2022-09-07T15:33:31.454Z,22.31
2022-09-07T15:36:35.102Z,22.22
2022-09-07T15:39:40.480Z,22.29
2022-09-07T15:42:59.963Z,22.15
2022-09-07T15:46:04.376Z,21.93
2022-09-07T15:49:08.222Z,21.86
2022-09-07T15:52:11.766Z,21.80
2022-09-07T15:55:17.394Z,21.84
2022-09-07T15:58:21.686Z,21.88
2022-09-07T16:04:49.701Z,21.82
2022-09-07T16:11:23.990Z,21.64
2022-09-07T16:14:27.887Z,21.78
2022-09-07T16:17:36.698Z,22.06
2022-09-07T16:20:42.183Z,22.12
2022-09-07T16:23:48.975Z,22.22
2022-09-07T16:26:53.910Z,22.28
2022-09-07T16:29:57.566Z,22.14
2022-09-07T16:33:01.288Z,22.17
2022-09-07T16:36:09.211Z,22.15
2022-09-07T16:39:12.862Z,21.95
2022-09-07T16:42:17.802Z,21.81
2022-09-07T16:49:04.097Z,21.50
2022-09-07T16:52:10.810Z,21.42
2022-09-07T16:55:14.779Z,21.33
2022-09-07T16:58:35.715Z,21.20
2022-09-07T17:01:40.061Z,21.08
2022-09-07T17:04:43.656Z,21.05
2022-09-07T17:07:47.714Z,21.02
2022-09-07T17:10:51.243Z,20.92
2022-09-07T17:13:59.070Z,20.89
2022-09-07T17:17:02.723Z,20.89
2022-09-07T17:20:07.963Z,20.91
2022-09-07T17:23:11.599Z,20.92
2022-09-07T17:26:17.072Z,20.90
2022-09-07T17:29:22.306Z,20.85
2022-09-07T17:32:28.627Z,20.82
2022-09-07T17:35:37.411Z,20.77
2022-09-07T17:42:05.587Z,20.58
2022-09-07T17:45:11.647Z,20.49
2022-09-07T17:48:15.402Z,20.36
2022-09-07T17:51:20.135Z,20.26
2022-09-07T17:54:24.902Z,20.19
2022-09-07T17:57:30.884Z,20.10
2022-09-07T18:00:36.007Z,20.02
2022-09-07T18:03:40.235Z,19.97
2022-09-07T18:06:44.214Z,19.88
2022-09-07T18:09:47.777Z,19.81
2022-09-07T18:12:51.419Z,19.70
2022-09-07T18:15:56.625Z,19.66
2022-09-07T18:19:03.613Z,19.60
2022-09-07T18:22:08.744Z,19.53
2022-09-07T18:25:12.795Z,19.47
2022-09-07T18:31:41.365Z,19.31
2022-09-07T18:34:50.239Z,19.17
2022-09-07T18:37:55.318Z,19.03
2022-09-07T18:41:04.594Z,18.93
2022-09-07T18:45:27.274Z,18.85
2022-09-07T18:47:33.483Z,18.74
2022-09-07T18:50:37.407Z,18.67
2022-09-07T18:53:41.460Z,18.62
2022-09-07T18:56:45.085Z,18.58
2022-09-07T18:59:48.811Z,18.55
2022-09-07T19:02:53.846Z,18.56
2022-09-07T19:06:03.728Z,18.50
2022-09-07T19:09:07.358Z,18.46
2022-09-07T19:12:10.986Z,18.45
2022-09-07T19:15:32.302Z,18.37
2022-09-07T19:18:41.474Z,18.29
2022-09-07T19:21:45.091Z,18.25
2022-09-07T19:24:49.509Z,18.21
2022-09-07T19:27:53.173Z,18.12
2022-09-07T19:31:02.733Z,18.04
2022-09-07T19:34:07.850Z,17.96
2022-09-07T19:37:14.604Z,17.89
2022-09-07T19:40:19.409Z,17.81
2022-09-07T19:43:23.169Z,17.76
2022-09-07T19:46:27.615Z,17.71
2022-09-07T19:49:32.739Z,17.70
2022-09-07T19:52:36.882Z,17.64
2022-09-07T19:55:40.861Z,17.62
2022-09-07T19:58:46.376Z,17.56
2022-09-07T20:01:50.917Z,17.56
2022-09-07T20:04:55.963Z,17.56
2022-09-07T20:07:59.667Z,17.57
2022-09-07T20:11:03.976Z,17.54
2022-09-07T20:14:07.758Z,17.51
2022-09-07T20:17:11.520Z,17.48
2022-09-07T20:20:16.717Z,17.44
2022-09-07T20:23:20.732Z,17.39
2022-09-07T20:26:24.985Z,17.35
2022-09-07T20:29:29.574Z,17.29
2022-09-07T20:32:33.251Z,17.23
2022-09-07T20:35:38.163Z,17.19
2022-09-07T20:38:44.127Z,17.13
2022-09-07T20:41:48.176Z,17.07
2022-09-07T20:44:51.919Z,17.02
2022-09-07T20:47:55.527Z,16.96
2022-09-07T20:51:03.978Z,16.88
2022-09-07T20:54:08.215Z,16.77
2022-09-07T20:57:11.976Z,16.75
2022-09-07T21:00:15.933Z,16.66
2022-09-07T21:03:20.289Z,16.60
2022-09-07T21:06:27.405Z,16.51
2022-09-07T21:09:30.985Z,16.45
2022-09-07T21:12:34.676Z,16.40
2022-09-07T21:15:39.469Z,16.36
2022-09-07T21:18:44.407Z,16.33
2022-09-07T21:21:49.389Z,16.29
2022-09-07T21:24:54.164Z,16.25
2022-09-07T21:27:57.831Z,16.22
2022-09-07T21:31:04.699Z,16.25
2022-09-07T21:34:08.344Z,16.36
2022-09-07T21:37:13.327Z,16.38
2022-09-07T21:40:17.380Z,16.32
2022-09-07T21:43:21.048Z,16.31
2022-09-07T21:46:25.073Z,16.27
2022-09-07T21:49:28.746Z,16.25
2022-09-07T21:52:33.754Z,16.22
2022-09-07T21:55:37.664Z,16.17
2022-09-07T21:58:41.584Z,16.14
2022-09-07T22:01:45.244Z,16.09
2022-09-07T22:04:48.892Z,16.06
2022-09-07T22:07:53.967Z,16.03
2022-09-07T22:11:06.324Z,16.03
2022-09-07T22:14:13.395Z,15.99
2022-09-07T22:17:17.111Z,16.01
2022-09-07T22:20:20.998Z,15.99
2022-09-07T22:23:26.043Z,15.95
2022-09-07T22:26:32.371Z,15.93
2022-09-07T22:29:35.927Z,15.89
2022-09-07T22:32:39.512Z,15.82
2022-09-07T22:35:43.290Z,15.80
2022-09-07T22:38:51.406Z,15.76
2022-09-07T22:41:54.952Z,15.71
2022-09-07T22:44:58.829Z,15.67
2022-09-07T22:48:02.522Z,15.69
2022-09-07T22:51:07.264Z,15.59
2022-09-07T22:54:12.586Z,15.55
2022-09-07T22:57:16.203Z,15.46
2022-09-07T23:00:19.907Z,15.42
2022-09-07T23:03:23.544Z,15.32
2022-09-07T23:06:30.769Z,15.26
2022-09-07T23:09:35.763Z,15.24
2022-09-07T23:12:40.484Z,15.20
2022-09-07T23:15:44.400Z,15.16
2022-09-07T23:18:48.325Z,15.15
2022-09-07T23:21:51.939Z,15.12
2022-09-07T23:24:56.882Z,15.13
2022-09-07T23:28:00.546Z,15.07
2022-09-07T23:31:04.224Z,14.98
2022-09-07T23:34:08.574Z,14.92
2022-09-07T23:37:12.101Z,14.89
2022-09-07T23:40:17.317Z,14.83
2022-09-07T23:43:20.902Z,14.80
2022-09-07T23:46:25.333Z,14.80
2022-09-07T23:49:29.209Z,14.77
2022-09-07T23:52:33.759Z,14.74
2022-09-07T23:55:39.673Z,14.63
2022-09-07T23:58:43.399Z,14.58
